Time,TemperatureF,DewpointF,PressureIn,WindDirection,WindDirectionDegrees,WindSpeedMPH,WindSpeedGustMPH,Humidity,HourlyPrecipIn,Conditions,Clouds,dailyrainin,SoftwareType,DateUTC
2013-04-29 00:03:00,57.0,30.0,30.16,South,180,7.0,-999.0,35,-99.99,,,-99.99,,2013-04-29 04:03:00,
2013-04-29 00:13:00,57.0,30.0,30.16,South,190,6.0,-999.0,35,-99.99,,,-99.99,,2013-04-29 04:13:00,
2013-04-29 00:23:00,57.0,28.0,30.17,South,190,6.0,-999.0,33,-99.99,,,-99.99,,2013-04-29 04:23:00,
2013-04-29 00:33:00,57.0,28.0,30.17,SSW,200,7.0,-999.0,33,-99.99,,,-99.99,,2013-04-29 04:33:00,
2013-04-29 00:43:00,57.0,28.0,30.17,SSW,200,7.0,-999.0,33,-99.99,,,-99.99,,2013-04-29 04:43:00,
2013-04-29 00:52:00,57.0,28.0,30.17,South,180,6.0,-999.0,33,-99.99,,,-99.99,,2013-04-29 04:52:00,
2013-04-29 01:02:00,57.0,28.0,30.17,South,180,6.0,-999.0,33,-99.99,,,-99.99,,2013-04-29 05:02:00,
2013-04-29 01:12:00,55.0,28.0,30.17,South,180,9.0,-999.0,35,-99.99,,,-99.99,,2013-04-29 05:12:00,
2013-04-29 01:22:00,55.0,28.0,30.17,South,170,7.0,-999.0,35,-99.99,,,-99.99,,2013-04-29 05:22:00,
2013-04-29 01:32:00,55.0,28.0,30.17,South,180,6.0,-999.0,35,-99.99,,,-99.99,,2013-04-29 05:32:00,
2013-04-29 01:42:00,55.0,28.0,30.17,South,170,5.0,-999.0,35,-99.99,,,-99.99,,2013-04-29 05:42:00,
2013-04-29 01:52:00,55.0,28.0,30.17,South,170,6.0,-999.0,35,-99.99,,,-99.99,,2013-04-29 05:52:00,
2013-04-29 02:02:00,55.0,28.0,30.17,South,170,6.0,-999.0,35,-99.99,,,-99.99,,2013-04-29 06:02:00,
2013-04-29 02:11:00,55.0,28.0,30.17,SSE,160,7.0,-999.0,35,-99.99,,,-99.99,,2013-04-29 06:11:00,
2013-04-29 02:21:00,55.0,28.0,30.17,South,180,6.0,-999.0,35,-99.99,,,-99.99,,2013-04-29 06:21:00,
2013-04-29 02:32:00,55.0,28.0,30.17,South,170,5.0,-999.0,35,-99.99,,,-99.99,,2013-04-29 06:32:00,
2013-04-29 02:42:00,55.0,28.0,30.17,South,170,5.0,-999.0,35,-99.99,,,-99.99,,2013-04-29 06:42:00,
2013-04-29 02:52:00,55.0,28.0,30.17,South,190,8.0,-999.0,35,-99.99,,,-99.99,,2013-04-29 06:52:00,
2013-04-29 03:01:00,55.0,28.0,30.17,South,190,8.0,-999.0,35,-99.99,,,-99.99,,2013-04-29 07:01:00,
2013-04-29 03:11:00,54.0,28.0,30.17,South,180,5.0,-999.0,37,-99.99,,,-99.99,,2013-04-29 07:11:00,
2013-04-29 03:21:00,54.0,28.0,30.17,South,180,6.0,-999.0,37,-99.99,,,-99.99,,2013-04-29 07:21:00,
2013-04-29 03:32:00,54.0,28.0,30.17,North,0,0.0,-999.0,37,-99.99,,,-99.99,,2013-04-29 07:32:00,
2013-04-29 03:42:00,54.0,28.0,30.17,South,180,6.0,-999.0,37,-99.99,,,-99.99,,2013-04-29 07:42:00,
2013-04-29 03:52:00,54.0,28.0,30.18,South,170,3.0,-999.0,37,-99.99,,,-99.99,,2013-04-29 07:52:00,
2013-04-29 04:03:00,54.0,28.0,30.18,South,170,3.0,-999.0,37,-99.99,,,-99.99,,2013-04-29 08:03:00,
2013-04-29 04:11:00,54.0,28.0,30.18,South,170,5.0,-999.0,37,-99.99,,,-99.99,,2013-04-29 08:11:00,
2013-04-29 04:21:00,54.0,28.0,30.18,North,0,0.0,-999.0,37,-99.99,,,-99.99,,2013-04-29 08:21:00,
2013-04-29 04:32:00,54.0,28.0,30.19,South,190,3.0,-999.0,37,-99.99,,,-99.99,,2013-04-29 08:32:00,
2013-04-29 04:42:00,54.0,28.0,30.19,South,170,5.0,-999.0,37,-99.99,,,-99.99,,2013-04-29 08:42:00,
2013-04-29 04:51:00,54.0,28.0,30.19,North,0,0.0,-999.0,37,-99.99,,,-99.99,,2013-04-29 08:51:00,
2013-04-29 05:01:00,54.0,28.0,30.19,North,0,0.0,-999.0,37,-99.99,,,-99.99,,2013-04-29 09:01:00,
2013-04-29 05:12:00,54.0,30.0,30.19,North,0,0.0,-999.0,40,-99.99,,,-99.99,,2013-04-29 09:12:00,
2013-04-29 05:21:00,54.0,30.0,30.19,South,190,3.0,-999.0,40,-99.99,,,-99.99,,2013-04-29 09:21:00,
2013-04-29 05:33:00,54.0,30.0,30.19,SSW,200,3.0,-999.0,40,-99.99,,,-99.99,,2013-04-29 09:33:00,
2013-04-29 05:42:00,54.0,30.0,30.19,North,0,0.0,-999.0,40,-99.99,,,-99.99,,2013-04-29 09:42:00,
2013-04-29 05:52:00,54.0,30.0,30.19,SSW,210,3.0,-999.0,40,-99.99,,,-99.99,,2013-04-29 09:52:00,
2013-04-29 06:02:00,54.0,30.0,30.19,SSW,210,3.0,-999.0,40,-99.99,,,-99.99,,2013-04-29 10:02:00,
2013-04-29 06:12:00,54.0,30.0,30.20,North,0,0.0,-999.0,40,-99.99,,,-99.99,,2013-04-29 10:12:00,
2013-04-29 06:23:00,54.0,30.0,30.20,North,0,0.0,-999.0,40,-99.99,,,-99.99,,2013-04-29 10:23:00,
2013-04-29 06:32:00,54.0,30.0,30.20,North,0,0.0,-999.0,40,-99.99,,,-99.99,,2013-04-29 10:32:00,
2013-04-29 06:42:00,54.0,32.0,30.20,North,0,0.0,-999.0,43,-99.99,,,-99.99,,2013-04-29 10:42:00,
2013-04-29 06:52:00,54.0,32.0,30.20,South,170,3.0,-999.0,43,-99.99,,,-99.99,,2013-04-29 10:52:00,
2013-04-29 07:03:00,54.0,32.0,30.20,South,170,3.0,-999.0,43,-99.99,,,-99.99,,2013-04-29 11:03:00,
2013-04-29 07:12:00,54.0,34.0,30.20,South,180,3.0,-999.0,46,-99.99,,,-99.99,,2013-04-29 11:12:00,
2013-04-29 07:21:00,54.0,36.0,30.21,South,190,3.0,-999.0,50,-99.99,,,-99.99,,2013-04-29 11:21:00,
2013-04-29 07:32:00,54.0,36.0,30.21,South,170,3.0,-999.0,50,-99.99,,,-99.99,,2013-04-29 11:32:00,
2013-04-29 07:42:00,54.0,36.0,30.21,South,170,6.0,-999.0,50,-99.99,,,-99.99,,2013-04-29 11:42:00,
2013-04-29 07:52:00,54.0,37.0,30.21,South,170,7.0,-999.0,54,-99.99,,,-99.99,,2013-04-29 11:52:00,
2013-04-29 08:01:00,54.0,37.0,30.21,South,170,7.0,-999.0,54,-99.99,,,-99.99,,2013-04-29 12:01:00,
2013-04-29 08:12:00,54.0,37.0,30.21,SE,140,5.0,-999.0,54,-99.99,,,-99.99,,2013-04-29 12:12:00,
2013-04-29 08:22:00,55.0,37.0,30.21,South,170,5.0,-999.0,50,-99.99,,,-99.99,,2013-04-29 12:22:00,
2013-04-29 08:32:00,55.0,39.0,30.21,South,190,5.0,-999.0,54,-99.99,,,-99.99,,2013-04-29 12:32:00,
2013-04-29 08:42:00,55.0,39.0,30.21,South,190,6.0,-999.0,54,-99.99,,,-99.99,,2013-04-29 12:42:00,
2013-04-29 08:52:00,55.0,39.0,30.21,South,170,7.0,-999.0,54,-99.99,,,-99.99,,2013-04-29 12:52:00,
2013-04-29 09:01:00,55.0,39.0,30.21,South,170,7.0,-999.0,54,-99.99,,,-99.99,,2013-04-29 13:01:00,
2013-04-29 09:11:00,55.0,41.0,30.20,South,170,10.0,-999.0,58,-99.99,,,-99.99,,2013-04-29 13:11:00,
2013-04-29 09:21:00,55.0,43.0,30.20,South,180,5.0,-999.0,62,-99.99,,,-99.99,,2013-04-29 13:21:00,
2013-04-29 09:32:00,57.0,43.0,30.20,SSE,150,8.0,-999.0,58,-99.99,,,-99.99,,2013-04-29 13:32:00,
2013-04-29 09:42:00,57.0,43.0,30.20,South,170,9.0,-999.0,58,-99.99,,,-99.99,,2013-04-29 13:42:00,
2013-04-29 09:52:00,57.0,43.0,30.20,South,190,10.0,-999.0,58,-99.99,,,-99.99,,2013-04-29 13:52:00,
2013-04-29 10:02:00,57.0,43.0,30.20,South,190,10.0,-999.0,58,-99.99,,,-99.99,,2013-04-29 14:02:00,
2013-04-29 10:11:00,57.0,43.0,30.19,South,180,10.0,-999.0,58,-99.99,,,-99.99,,2013-04-29 14:11:00,
2013-04-29 10:21:00,57.0,43.0,30.19,South,180,13.0,17.0,58,-99.99,,,-99.99,,2013-04-29 14:21:00,
2013-04-29 10:32:00,57.0,43.0,30.19,SSE,160,13.0,17.0,58,-99.99,,,-99.99,,2013-04-29 14:32:00,
2013-04-29 10:42:00,57.0,43.0,30.20,South,180,7.0,-999.0,58,-99.99,,,-99.99,,2013-04-29 14:42:00,
2013-04-29 10:52:00,57.0,43.0,30.20,SSE,160,5.0,-999.0,58,-99.99,,,-99.99,,2013-04-29 14:52:00,
2013-04-29 11:01:00,57.0,43.0,30.20,SSE,160,5.0,-999.0,58,-99.99,,,-99.99,,2013-04-29 15:01:00,
2013-04-29 11:12:00,57.0,43.0,30.20,SSE,160,10.0,-999.0,58,-99.99,,,-99.99,,2013-04-29 15:12:00,
2013-04-29 11:21:00,57.0,43.0,30.20,South,170,14.0,21.0,58,-99.99,,,-99.99,,2013-04-29 15:21:00,
2013-04-29 11:33:00,57.0,43.0,30.19,South,170,14.0,22.0,58,-99.99,,,-99.99,,2013-04-29 15:33:00,
2013-04-29 11:42:00,57.0,43.0,30.20,South,170,15.0,23.0,58,-99.99,,,-99.99,,2013-04-29 15:42:00,
2013-04-29 11:53:00,57.0,43.0,30.20,South,190,14.0,22.0,58,-99.99,,,-99.99,,2013-04-29 15:53:00,
2013-04-29 12:03:00,57.0,43.0,30.20,South,190,14.0,22.0,58,-99.99,,,-99.99,,2013-04-29 16:03:00,
2013-04-29 12:12:00,57.0,43.0,30.19,South,170,12.0,17.0,58,-99.99,,,-99.99,,2013-04-29 16:12:00,
2013-04-29 12:23:00,57.0,43.0,30.19,South,190,9.0,22.0,58,-99.99,,,-99.99,,2013-04-29 16:23:00,
2013-04-29 12:33:00,57.0,43.0,30.19,South,170,9.0,17.0,58,-99.99,,,-99.99,,2013-04-29 16:33:00,
2013-04-29 12:42:00,57.0,43.0,30.19,South,170,12.0,18.0,58,-99.99,,,-99.99,,2013-04-29 16:42:00,
2013-04-29 12:52:00,57.0,43.0,30.19,South,170,10.0,16.0,58,-99.99,,,-99.99,,2013-04-29 16:52:00,
2013-04-29 13:02:00,57.0,43.0,30.19,South,170,10.0,16.0,58,-99.99,,,-99.99,,2013-04-29 17:02:00,
2013-04-29 13:12:00,57.0,43.0,30.19,South,180,8.0,-999.0,58,-99.99,,,-99.99,,2013-04-29 17:12:00,
2013-04-29 13:22:00,57.0,43.0,30.19,South,180,12.0,-999.0,58,-99.99,,,-99.99,,2013-04-29 17:22:00,
2013-04-29 13:32:00,57.0,43.0,30.19,South,170,10.0,-999.0,58,-99.99,,,-99.99,,2013-04-29 17:32:00,
2013-04-29 13:42:00,57.0,43.0,30.19,South,180,13.0,21.0,58,-99.99,,,-99.99,,2013-04-29 17:42:00,
2013-04-29 13:52:00,57.0,43.0,30.19,South,170,13.0,17.0,58,-99.99,,,-99.99,,2013-04-29 17:52:00,
2013-04-29 14:01:00,57.0,43.0,30.19,South,170,13.0,17.0,58,-99.99,,,-99.99,,2013-04-29 18:01:00,
2013-04-29 14:12:00,59.0,43.0,30.19,South,180,9.0,22.0,54,-99.99,,,-99.99,,2013-04-29 18:12:00,
2013-04-29 14:21:00,59.0,43.0,30.18,South,170,13.0,23.0,54,-99.99,,,-99.99,,2013-04-29 18:21:00,
2013-04-29 14:31:00,59.0,43.0,30.18,South,180,12.0,22.0,54,-99.99,,,-99.99,,2013-04-29 18:31:00,
2013-04-29 14:41:00,59.0,43.0,30.18,South,170,9.0,18.0,54,-99.99,,,-99.99,,2013-04-29 18:41:00,
2013-04-29 14:51:00,59.0,43.0,30.18,South,170,13.0,21.0,54,-99.99,,,-99.99,,2013-04-29 18:51:00,
2013-04-29 15:01:00,59.0,43.0,30.18,South,170,13.0,21.0,54,-99.99,,,-99.99,,2013-04-29 19:01:00,
2013-04-29 15:11:00,59.0,43.0,30.18,South,180,9.0,18.0,54,-99.99,,,-99.99,,2013-04-29 19:11:00,
2013-04-29 15:21:00,59.0,43.0,30.18,South,170,12.0,20.0,54,-99.99,,,-99.99,,2013-04-29 19:21:00,
2013-04-29 15:31:00,57.0,43.0,30.18,South,180,8.0,20.0,58,-99.99,,,-99.99,,2013-04-29 19:31:00,
2013-04-29 15:41:00,57.0,43.0,30.18,South,180,9.0,16.0,58,-99.99,,,-99.99,,2013-04-29 19:41:00,
2013-04-29 15:51:00,59.0,43.0,30.18,South,180,13.0,16.0,54,-99.99,,,-99.99,,2013-04-29 19:51:00,
2013-04-29 16:02:00,59.0,43.0,30.18,South,180,13.0,16.0,54,-99.99,,,-99.99,,2013-04-29 20:02:00,
2013-04-29 16:11:00,59.0,43.0,30.17,South,190,8.0,20.0,54,-99.99,,,-99.99,,2013-04-29 20:11:00,
2013-04-29 16:21:00,59.0,43.0,30.17,South,170,9.0,20.0,54,-99.99,,,-99.99,,2013-04-29 20:21:00,
2013-04-29 16:32:00,57.0,41.0,30.17,South,180,14.0,21.0,54,-99.99,,,-99.99,,2013-04-29 20:32:00,
2013-04-29 16:42:00,57.0,43.0,30.17,South,190,13.0,20.0,58,-99.99,,,-99.99,,2013-04-29 20:42:00,
2013-04-29 16:51:00,57.0,43.0,30.17,South,180,12.0,17.0,58,-99.99,,,-99.99,,2013-04-29 20:51:00,
2013-04-29 17:01:00,57.0,43.0,30.17,South,180,12.0,17.0,58,-99.99,,,-99.99,,2013-04-29 21:01:00,
2013-04-29 17:11:00,57.0,45.0,30.18,South,190,9.0,17.0,62,-99.99,,,-99.99,,2013-04-29 21:11:00,
2013-04-29 17:21:00,55.0,46.0,30.18,South,170,7.0,-999.0,71,-99.99,,,-99.99,,2013-04-29 21:21:00,
2013-04-29 17:33:00,55.0,46.0,30.18,South,180,6.0,-999.0,71,-99.99,,,-99.99,,2013-04-29 21:33:00,
2013-04-29 17:42:00,55.0,46.0,30.18,South,170,5.0,-999.0,71,-99.99,,,-99.99,,2013-04-29 21:42:00,
2013-04-29 17:53:00,55.0,46.0,30.18,SSW,200,5.0,-999.0,71,-99.99,,,-99.99,,2013-04-29 21:53:00,
2013-04-29 18:02:00,55.0,46.0,30.18,SSW,200,5.0,-999.0,71,-99.99,,,-99.99,,2013-04-29 22:02:00,
2013-04-29 18:13:00,55.0,46.0,30.18,South,180,9.0,-999.0,71,-99.99,,,-99.99,,2013-04-29 22:13:00,
2013-04-29 18:23:00,55.0,45.0,30.18,South,180,8.0,-999.0,66,-99.99,,,-99.99,,2013-04-29 22:23:00,
2013-04-29 18:32:00,55.0,45.0,30.18,South,180,8.0,-999.0,66,-99.99,,,-99.99,,2013-04-29 22:32:00,
2013-04-29 18:42:00,55.0,45.0,30.18,South,190,6.0,-999.0,66,-99.99,,,-99.99,,2013-04-29 22:42:00,
2013-04-29 18:52:00,55.0,45.0,30.18,South,170,9.0,-999.0,66,-99.99,,,-99.99,,2013-04-29 22:52:00,
2013-04-29 19:02:00,55.0,45.0,30.18,South,170,9.0,-999.0,66,-99.99,,,-99.99,,2013-04-29 23:02:00,
2013-04-29 19:11:00,55.0,45.0,30.19,South,170,7.0,-999.0,66,-99.99,,,-99.99,,2013-04-29 23:11:00,
2013-04-29 19:22:00,55.0,45.0,30.19,South,180,7.0,-999.0,66,-99.99,,,-99.99,,2013-04-29 23:22:00,
2013-04-29 19:32:00,55.0,43.0,30.19,South,170,7.0,-999.0,62,-99.99,,,-99.99,,2013-04-29 23:32:00,
2013-04-29 19:42:00,55.0,43.0,30.19,South,170,7.0,-999.0,62,-99.99,,,-99.99,,2013-04-29 23:42:00,
2013-04-29 19:52:00,55.0,45.0,30.19,South,180,8.0,-999.0,66,-99.99,,,-99.99,,2013-04-29 23:52:00,
2013-04-29 20:01:00,55.0,45.0,30.19,South,180,8.0,-999.0,66,-99.99,,,-99.99,,2013-04-30 00:01:00,
2013-04-29 20:11:00,55.0,45.0,30.20,South,170,6.0,-999.0,66,-99.99,,,-99.99,,2013-04-30 00:11:00,
2013-04-29 20:21:00,54.0,45.0,30.20,South,170,8.0,-999.0,71,-99.99,,,-99.99,,2013-04-30 00:21:00,
2013-04-29 20:32:00,54.0,45.0,30.20,South,170,6.0,-999.0,71,-99.99,,,-99.99,,2013-04-30 00:32:00,
2013-04-29 20:42:00,54.0,45.0,30.21,South,170,6.0,-999.0,71,-99.99,,,-99.99,,2013-04-30 00:42:00,
2013-04-29 20:51:00,54.0,45.0,30.21,SSE,160,3.0,-999.0,71,-99.99,,,-99.99,,2013-04-30 00:51:00,
2013-04-29 21:02:00,54.0,45.0,30.21,SSE,160,3.0,-999.0,71,-99.99,,,-99.99,,2013-04-30 01:02:00,
2013-04-29 21:11:00,54.0,46.0,30.21,South,170,3.0,-999.0,76,-99.99,,,-99.99,,2013-04-30 01:11:00,
2013-04-29 21:22:00,54.0,46.0,30.22,South,170,6.0,-999.0,76,-99.99,,,-99.99,,2013-04-30 01:22:00,
2013-04-29 21:32:00,54.0,46.0,30.22,South,170,5.0,-999.0,76,-99.99,,,-99.99,,2013-04-30 01:32:00,
2013-04-29 21:41:00,54.0,46.0,30.22,SSE,160,3.0,-999.0,76,-99.99,,,-99.99,,2013-04-30 01:41:00,
2013-04-29 21:51:00,54.0,46.0,30.22,South,190,5.0,-999.0,76,-99.99,,,-99.99,,2013-04-30 01:51:00,
2013-04-29 22:01:00,54.0,46.0,30.22,South,190,5.0,-999.0,76,-99.99,,,-99.99,,2013-04-30 02:01:00,
2013-04-29 22:11:00,54.0,46.0,30.22,SSE,160,5.0,-999.0,76,-99.99,,,-99.99,,2013-04-30 02:11:00,
2013-04-29 22:21:00,54.0,46.0,30.23,SSE,160,5.0,-999.0,76,-99.99,,,-99.99,,2013-04-30 02:21:00,
2013-04-29 22:31:00,54.0,46.0,30.23,SSE,150,3.0,-999.0,76,-99.99,,,-99.99,,2013-04-30 02:31:00,
2013-04-29 22:41:00,54.0,46.0,30.22,SSE,160,3.0,-999.0,76,-99.99,,,-99.99,,2013-04-30 02:41:00,
2013-04-29 22:51:00,54.0,46.0,30.22,SE,140,5.0,-999.0,76,-99.99,,,-99.99,,2013-04-30 02:51:00,
2013-04-29 23:01:00,54.0,46.0,30.22,SE,140,5.0,-999.0,76,-99.99,,,-99.99,,2013-04-30 03:01:00,
2013-04-29 23:11:00,52.0,46.0,30.22,North,0,0.0,-999.0,81,-99.99,,,-99.99,,2013-04-30 03:11:00,
2013-04-29 23:21:00,52.0,46.0,30.22,SE,140,5.0,-999.0,81,-99.99,,,-99.99,,2013-04-30 03:21:00,
2013-04-29 23:33:00,52.0,46.0,30.22,SE,140,5.0,-999.0,81,-99.99,,,-99.99,,2013-04-30 03:33:00,
2013-04-29 23:42:00,52.0,46.0,30.22,SE,140,3.0,-999.0,81,-99.99,,,-99.99,,2013-04-30 03:42:00,
2013-04-29 23:52:00,52.0,46.0,30.22,SE,130,5.0,-999.0,81,-99.99,,,-99.99,,2013-04-30 03:52:00,